createdAt,value
2022-09-24T00:01:40.615Z,98122.19
2022-09-24T00:04:13.166Z,98121.56
2022-09-24T00:06:47.998Z,98121.63
2022-09-24T00:09:22.246Z,98121.63
2022-09-24T00:11:52.785Z,98122.38
2022-09-24T00:14:20.504Z,98118.94
2022-09-24T00:16:47.818Z,98113.97
2022-09-24T00:19:15.311Z,98119.03
2022-09-24T00:21:43.653Z,98116.53
2022-09-24T00:24:34.314Z,98112.31
2022-09-24T00:27:04.104Z,98108.88
2022-09-24T00:29:34.361Z,98104.59
2022-09-24T00:32:03.278Z,98107.00
2022-09-24T00:34:30.727Z,98101.25
2022-09-24T00:36:57.922Z,98097.06
2022-09-24T00:39:25.306Z,98088.72
2022-09-24T00:41:52.726Z,98090.59
2022-09-24T00:44:55.053Z,98090.56
2022-09-24T00:47:46.016Z,98084.91
2022-09-24T00:50:25.398Z,98082.59
2022-09-24T00:53:07.501Z,98082.88
2022-09-24T00:55:37.685Z,98081.44
2022-09-24T00:58:09.473Z,98076.91
2022-09-24T01:00:44.764Z,98079.91
2022-09-24T01:03:21.508Z,98069.97
2022-09-24T01:05:51.086Z,98068.63
2022-09-24T01:08:21.171Z,98071.28
2022-09-24T01:11:16.334Z,98070.03
2022-09-24T01:14:27.079Z,98067.72
2022-09-24T01:17:07.068Z,98061.03
2022-09-24T01:19:47.237Z,98061.63
2022-09-24T01:22:41.202Z,98064.59
2022-09-24T01:25:37.964Z,98050.19
2022-09-24T01:28:38.387Z,98047.97
2022-09-24T01:31:41.196Z,98046.47
2022-09-24T01:34:12.479Z,98032.00
2022-09-24T01:36:43.049Z,98033.00
2022-09-24T01:39:14.567Z,98034.78
2022-09-24T01:41:44.831Z,98025.28
2022-09-24T01:44:13.176Z,98028.47
2022-09-24T01:46:42.319Z,98023.09
2022-09-24T01:49:10.327Z,98026.44
2022-09-24T01:51:58.889Z,98028.28
2022-09-24T01:54:37.142Z,98037.00
2022-09-24T01:57:30.122Z,98029.03
2022-09-24T02:00:10.031Z,98025.97
2022-09-24T02:03:02.537Z,98023.66
2022-09-24T02:05:41.801Z,98028.47
2022-09-24T02:08:11.957Z,98025.13
2022-09-24T02:10:57.869Z,98023.66
2022-09-24T02:13:34.159Z,98029.59
2022-09-24T02:16:05.979Z,98025.31
2022-09-24T02:18:41.773Z,98030.91
2022-09-24T02:21:15.685Z,98031.28
2022-09-24T02:24:03.334Z,98031.16
2022-09-24T02:26:30.739Z,98031.06
2022-09-24T02:28:59.292Z,98023.47
2022-09-24T02:31:32.417Z,98017.53
2022-09-24T02:34:20.701Z,98026.16
2022-09-24T02:36:54.695Z,98029.03
2022-09-24T02:39:22.299Z,98022.25
2022-09-24T02:41:52.427Z,98031.63
2022-09-24T02:44:20.541Z,98030.69
2022-09-24T02:46:48.357Z,98025.31
2022-09-24T02:49:15.923Z,98031.38
2022-09-24T02:51:44.958Z,98023.47
2022-09-24T02:54:12.901Z,98025.97
2022-09-24T02:56:41.157Z,98026.78
2022-09-24T02:59:08.827Z,98032.31
2022-09-24T03:01:36.853Z,98028.94
2022-09-24T03:04:04.792Z,98038.72
2022-09-24T03:06:32.888Z,98028.41
2022-09-24T03:09:02.363Z,98019.19
2022-09-24T03:11:31.592Z,98018.44
2022-09-24T03:13:59.489Z,98010.66
2022-09-24T03:16:27.027Z,98011.69
2022-09-24T03:18:54.285Z,98010.84
2022-09-24T03:21:22.713Z,98012.69
2022-09-24T03:23:50.475Z,98015.59
2022-09-24T03:26:18.443Z,98018.66
2022-09-24T03:28:46.153Z,98020.59
2022-09-24T03:31:14.151Z,98018.91
2022-09-24T03:33:49.110Z,98013.81
2022-09-24T03:36:26.891Z,98007.69
2022-09-24T03:38:56.914Z,98004.88
2022-09-24T03:41:30.036Z,98004.13
2022-09-24T03:43:57.269Z,98015.69
2022-09-24T03:46:30.288Z,98005.38
2022-09-24T03:48:59.476Z,98003.41
2022-09-24T03:51:26.699Z,98008.50
2022-09-24T03:53:53.933Z,98006.66
2022-09-24T03:56:21.316Z,98009.19
2022-09-24T03:58:48.544Z,98014.19
2022-09-24T04:01:21.385Z,98015.84
2022-09-24T04:03:50.655Z,98022.81
2022-09-24T04:06:23.346Z,98022.44
2022-09-24T04:08:53.346Z,98023.47
2022-09-24T04:11:20.576Z,98015.31
2022-09-24T04:13:47.821Z,98012.81
2022-09-24T04:16:15.289Z,98015.41
2022-09-24T04:18:43.063Z,98015.50
2022-09-24T04:21:10.675Z,98014.47
2022-09-24T04:23:38.122Z,98012.94
2022-09-24T04:26:05.357Z,98000.03
2022-09-24T04:28:33.086Z,98009.44
2022-09-24T04:31:00.489Z,98002.41
2022-09-24T04:33:27.877Z,98005.09
2022-09-24T04:35:55.008Z,98002.53
2022-09-24T04:38:22.403Z,97996.50
2022-09-24T04:40:49.755Z,97995.53
2022-09-24T04:43:19.287Z,97992.72
2022-09-24T04:45:47.116Z,97993.38
2022-09-24T04:48:14.519Z,97988.81
2022-09-24T04:50:45.865Z,97985.09
2022-09-24T04:53:14.854Z,97991.13
2022-09-24T04:55:42.211Z,97989.94
2022-09-24T04:58:10.468Z,97986.09
2022-09-24T05:00:37.974Z,97987.22
2022-09-24T05:03:05.694Z,97989.25
2022-09-24T05:05:34.565Z,97991.69
2022-09-24T05:08:03.165Z,97985.84
2022-09-24T05:10:33.208Z,97986.34
2022-09-24T05:13:02.324Z,97988.28
2022-09-24T05:15:30.344Z,97988.72
2022-09-24T05:17:58.204Z,97982.91
2022-09-24T05:20:25.807Z,97980.66
2022-09-24T05:22:53.263Z,97983.47
2022-09-24T05:25:22.668Z,97979.66
2022-09-24T05:27:55.930Z,97977.56
2022-09-24T05:30:25.997Z,97971.94
2022-09-24T05:32:53.366Z,97980.28
2022-09-24T05:35:23.970Z,97976.22
2022-09-24T05:37:53.840Z,97974.56
2022-09-24T05:40:40.123Z,97980.28
2022-09-24T05:43:07.695Z,97974.69
2022-09-24T05:45:34.930Z,97981.88
2022-09-24T05:48:02.507Z,97985.88
2022-09-24T05:50:30.210Z,97990.13
2022-09-24T05:52:57.431Z,97989.50
2022-09-24T05:55:28.745Z,97987.19
2022-09-24T05:58:07.593Z,97989.03
2022-09-24T06:00:36.294Z,97993.44
2022-09-24T06:03:17.163Z,97993.59
2022-09-24T06:05:50.382Z,98002.44
2022-09-24T06:08:20.716Z,98003.22
2022-09-24T06:10:48.950Z,98000.59
2022-09-24T06:13:21.004Z,98003.56
2022-09-24T06:15:48.488Z,97992.00
2022-09-24T06:18:16.007Z,97993.63
2022-09-24T06:20:44.508Z,97995.53
2022-09-24T06:23:11.857Z,97994.66
2022-09-24T06:25:39.009Z,97994.34
2022-09-24T06:28:06.254Z,97995.28
2022-09-24T06:30:40.154Z,97996.97
2022-09-24T06:33:11.738Z,97998.22
2022-09-24T06:35:42.907Z,98002.72
2022-09-24T06:38:16.806Z,98009.84
2022-09-24T06:40:47.180Z,98002.44
2022-09-24T06:43:15.588Z,98008.75
2022-09-24T06:45:43.189Z,98009.34
2022-09-24T06:48:14.979Z,97999.16
2022-09-24T06:50:45.545Z,97996.81
2022-09-24T06:53:13.262Z,97993.59
2022-09-24T06:55:42.015Z,97995.56
2022-09-24T06:58:13.349Z,97995.53
2022-09-24T07:00:41.884Z,97998.19
2022-09-24T07:03:18.295Z,98001.09
2022-09-24T07:05:45.866Z,97990.41
2022-09-24T07:08:13.116Z,97998.06
2022-09-24T07:10:52.679Z,97994.31
2022-09-24T07:13:21.552Z,97996.31
2022-09-24T07:15:51.400Z,98003.91
2022-09-24T07:18:23.658Z,98001.03
2022-09-24T07:20:56.563Z,97993.03
2022-09-24T07:23:24.482Z,97993.50
2022-09-24T07:25:57.748Z,97998.84
2022-09-24T07:28:25.688Z,98001.78
2022-09-24T07:30:59.322Z,98008.22
2022-09-24T07:33:26.858Z,98015.88
2022-09-24T07:35:54.301Z,98013.47
2022-09-24T07:38:22.460Z,98015.22
2022-09-24T07:40:50.006Z,98023.44
2022-09-24T07:43:21.425Z,98024.03
2022-09-24T07:45:49.177Z,98023.91
2022-09-24T07:48:16.612Z,98018.25
2022-09-24T07:50:44.089Z,98026.03
2022-09-24T07:53:12.788Z,98027.13
2022-09-24T07:55:40.912Z,98026.03
2022-09-24T07:58:13.960Z,98028.88
2022-09-24T08:00:41.831Z,98030.59
2022-09-24T08:03:09.109Z,98036.44
2022-09-24T08:05:43.035Z,98034.44
2022-09-24T08:08:10.171Z,98034.47
2022-09-24T08:10:38.658Z,98035.94
2022-09-24T08:13:05.898Z,98034.28
2022-09-24T08:15:33.310Z,98036.94
2022-09-24T08:18:04.932Z,98036.13
2022-09-24T08:20:33.725Z,98028.66
2022-09-24T08:23:02.891Z,98024.66
2022-09-24T08:25:31.319Z,98027.34
2022-09-24T08:28:12.314Z,98033.47
2022-09-24T08:30:40.531Z,98034.31
2022-09-24T08:33:08.497Z,98032.66
2022-09-24T08:35:36.769Z,98035.97
2022-09-24T08:38:04.381Z,98034.97
2022-09-24T08:41:21.453Z,98034.78
2022-09-24T08:44:44.142Z,98039.09
2022-09-24T08:47:43.142Z,98037.94
2022-09-24T08:50:23.500Z,98031.94
2022-09-24T08:53:15.331Z,98031.28
2022-09-24T08:55:54.374Z,98027.69
2022-09-24T08:58:52.415Z,98026.53
2022-09-24T09:01:48.954Z,98020.03
2022-09-24T09:04:44.025Z,98022.81
2022-09-24T09:07:26.398Z,98022.97
2022-09-24T09:10:08.215Z,98021.69
2022-09-24T09:12:42.377Z,98017.41
2022-09-24T09:15:24.571Z,98007.09
2022-09-24T09:18:01.629Z,98003.16
2022-09-24T09:20:44.755Z,97995.19
2022-09-24T09:23:47.105Z,97989.53
2022-09-24T09:26:15.224Z,97987.41
2022-09-24T09:28:42.775Z,97988.63
2022-09-24T09:31:59.994Z,97987.31
2022-09-24T09:34:49.015Z,97988.13
2022-09-24T09:37:29.266Z,97985.56
2022-09-24T09:40:31.625Z,97984.94
2022-09-24T09:43:11.662Z,97983.03
2022-09-24T09:46:18.624Z,97980.44
2022-09-24T09:48:56.453Z,97980.25
2022-09-24T09:51:26.588Z,97977.22
2022-09-24T09:54:02.674Z,97988.19
2022-09-24T09:56:38.381Z,97977.09
2022-09-24T09:59:15.244Z,97982.97
2022-09-24T10:01:46.950Z,97983.50
2022-09-24T10:04:39.654Z,97982.00
2022-09-24T10:07:14.258Z,97981.63
2022-09-24T10:09:43.999Z,97985.13
2022-09-24T10:12:24.437Z,97980.78
2022-09-24T10:15:21.028Z,97985.09
2022-09-24T10:17:53.316Z,97990.53
2022-09-24T10:20:32.808Z,97990.97
2022-09-24T10:23:07.533Z,97982.91
2022-09-24T10:25:37.728Z,97979.03
2022-09-24T10:28:36.012Z,97987.84
2022-09-24T10:31:19.320Z,97980.97
2022-09-24T10:33:52.330Z,97979.31
2022-09-24T10:36:30.156Z,97976.53
2022-09-24T10:39:07.692Z,97979.28
2022-09-24T10:41:36.009Z,97973.72
2022-09-24T10:44:11.986Z,97962.06
2022-09-24T10:46:44.959Z,97967.25
2022-09-24T10:49:58.103Z,97970.59
2022-09-24T10:52:40.259Z,97970.59
2022-09-24T10:55:33.908Z,97964.28
2022-09-24T10:58:44.621Z,97964.44
2022-09-24T11:01:32.521Z,97968.22
2022-09-24T11:04:38.634Z,97971.88
2022-09-24T11:07:48.337Z,97967.97
2022-09-24T11:11:16.584Z,97954.63
2022-09-24T11:14:17.180Z,97956.69
2022-09-24T11:17:00.247Z,97951.16
2022-09-24T11:20:04.834Z,97951.69
2022-09-24T11:22:55.319Z,97950.16
2022-09-24T11:25:47.559Z,97949.31
2022-09-24T11:28:56.288Z,97949.00
2022-09-24T11:31:47.740Z,97954.78
2022-09-24T11:34:51.064Z,97955.22
2022-09-24T11:37:44.290Z,97949.38
2022-09-24T11:40:17.140Z,97944.69
2022-09-24T11:43:18.547Z,97941.88
2022-09-24T11:46:03.921Z,97948.22
2022-09-24T11:48:43.178Z,97956.00
2022-09-24T11:51:16.822Z,97959.84
2022-09-24T11:53:59.004Z,97945.13
2022-09-24T11:56:40.488Z,97946.00
2022-09-24T11:59:29.255Z,97957.56
2022-09-24T12:02:19.393Z,97949.66
2022-09-24T12:05:09.419Z,97931.53
2022-09-24T12:07:45.386Z,97933.13
2022-09-24T12:10:38.683Z,97927.22
2022-09-24T12:13:42.463Z,97928.13
2022-09-24T12:16:20.303Z,97926.44
2022-09-24T12:19:17.860Z,97927.81
2022-09-24T12:21:50.637Z,97924.56
2022-09-24T12:24:23.569Z,97918.97
2022-09-24T12:26:53.868Z,97923.06
2022-09-24T12:30:03.236Z,97914.47
2022-09-24T12:33:01.358Z,97898.69
2022-09-24T12:35:28.488Z,97898.13
2022-09-24T12:38:13.109Z,97904.88
2022-09-24T12:40:40.257Z,97904.50
2022-09-24T12:43:35.480Z,97903.09
2022-09-24T12:46:06.928Z,97898.88
2022-09-24T12:48:38.919Z,97907.53
2022-09-24T12:51:10.444Z,97905.22
2022-09-24T12:53:42.441Z,97915.34
2022-09-24T12:56:11.937Z,97920.81
2022-09-24T12:58:45.277Z,97914.91
2022-09-24T13:01:29.016Z,97906.63
2022-09-24T13:04:14.353Z,97910.13
2022-09-24T13:06:48.278Z,97901.59
2022-09-24T13:09:41.304Z,97898.75
2022-09-24T13:12:18.127Z,97893.19
2022-09-24T13:15:02.786Z,97888.16
2022-09-24T13:17:36.074Z,97876.22
2022-09-24T13:20:17.224Z,97870.38
2022-09-24T13:23:20.530Z,97864.34
2022-09-24T13:26:05.117Z,97864.94
2022-09-24T13:28:51.473Z,97857.06
2022-09-24T13:31:22.159Z,97855.44
2022-09-24T13:34:00.803Z,97857.16
2022-09-24T13:36:59.156Z,97851.38
2022-09-24T13:39:50.546Z,97862.63
2022-09-24T13:42:35.873Z,97866.44
2022-09-24T13:45:11.563Z,97857.56
2022-09-24T13:47:51.224Z,97850.78
2022-09-24T13:50:50.014Z,97843.03
2022-09-24T13:53:37.019Z,97835.34
2022-09-24T13:56:14.341Z,97838.44
2022-09-24T13:58:43.863Z,97841.16
2022-09-24T14:01:26.109Z,97820.31
2022-09-24T14:04:01.575Z,97828.38
2022-09-24T14:06:45.700Z,97823.22
2022-09-24T14:09:34.959Z,97823.00
2022-09-24T14:12:15.501Z,97822.31
2022-09-24T14:14:52.013Z,97814.75
2022-09-24T14:17:19.911Z,97814.56
2022-09-24T14:19:54.022Z,97814.16
2022-09-24T14:22:36.636Z,97812.53
2022-09-24T14:25:10.678Z,97815.94
2022-09-24T14:27:45.518Z,97817.63
2022-09-24T14:30:23.415Z,97806.84
2022-09-24T14:33:16.913Z,97807.38
2022-09-24T14:35:52.161Z,97804.25
2022-09-24T14:38:29.720Z,97809.66
2022-09-24T14:41:19.939Z,97807.16
2022-09-24T14:43:55.235Z,97807.91
2022-09-24T14:46:32.658Z,97797.13
2022-09-24T14:49:17.603Z,97797.13
2022-09-24T14:52:04.249Z,97799.41
2022-09-24T14:54:40.306Z,97796.06
2022-09-24T14:57:19.951Z,97799.97
2022-09-24T14:59:47.799Z,97799.47
2022-09-24T15:02:37.270Z,97801.53
2022-09-24T15:05:08.753Z,97797.69
2022-09-24T15:07:36.521Z,97795.75
2022-09-24T15:10:06.567Z,97797.66
2022-09-24T15:12:40.994Z,97793.16
2022-09-24T15:15:17.418Z,97791.59
2022-09-24T15:17:47.471Z,97795.47
2022-09-24T15:20:15.331Z,97789.34
2022-09-24T15:22:43.063Z,97790.16
2022-09-24T15:25:14.559Z,97799.56
2022-09-24T15:27:43.009Z,97799.09
2022-09-24T15:30:20.749Z,97797.06
2022-09-24T15:32:52.527Z,97798.84
2022-09-24T15:35:19.791Z,97797.78
2022-09-24T15:37:49.538Z,97797.41
2022-09-24T15:40:23.229Z,97799.97
2022-09-24T15:42:51.844Z,97797.50
2022-09-24T15:45:22.984Z,97798.03
2022-09-24T15:47:52.099Z,97801.69
2022-09-24T15:50:22.766Z,97796.88
2022-09-24T15:52:59.860Z,97799.09
2022-09-24T15:55:29.040Z,97792.09
2022-09-24T15:57:56.506Z,97796.00
2022-09-24T16:00:25.720Z,97789.34
2022-09-24T16:02:58.095Z,97797.38
2022-09-24T16:05:26.202Z,97794.22
2022-09-24T16:07:53.498Z,97796.22
2022-09-24T16:10:21.009Z,97797.72
2022-09-24T16:12:48.471Z,97794.56
2022-09-24T16:15:16.798Z,97794.44
2022-09-24T16:17:44.545Z,97806.63
2022-09-24T16:20:11.969Z,97812.72
2022-09-24T16:22:39.364Z,97813.34
2022-09-24T16:25:07.258Z,97804.53
2022-09-24T16:27:35.418Z,97811.94
2022-09-24T16:30:06.281Z,97808.41
2022-09-24T16:32:33.978Z,97809.47
2022-09-24T16:35:01.664Z,97809.41
2022-09-24T16:37:29.345Z,97808.63
2022-09-24T16:39:56.642Z,97809.03
2022-09-24T16:42:26.442Z,97808.44
2022-09-24T16:44:53.702Z,97810.81
2022-09-24T16:47:21.211Z,97807.81
2022-09-24T16:49:48.642Z,97813.63
2022-09-24T16:52:15.897Z,97814.38
2022-09-24T16:54:43.603Z,97813.47
2022-09-24T16:57:11.089Z,97821.53
2022-09-24T16:59:38.335Z,97821.63
2022-09-24T17:02:08.550Z,97820.16
2022-09-24T17:04:36.003Z,97813.56
2022-09-24T17:07:03.228Z,97807.22
2022-09-24T17:09:48.847Z,97814.50
2022-09-24T17:12:16.302Z,97816.81
2022-09-24T17:14:43.707Z,97818.22
2022-09-24T17:17:10.894Z,97821.28
2022-09-24T17:19:38.320Z,97816.84
2022-09-24T17:22:06.012Z,97818.97
2022-09-24T17:24:36.032Z,97818.81
2022-09-24T17:27:03.530Z,97819.47
2022-09-24T17:29:31.876Z,97818.97
2022-09-24T17:31:59.484Z,97819.72
2022-09-24T17:34:27.657Z,97820.84
2022-09-24T17:36:54.980Z,97815.50
2022-09-24T17:39:22.953Z,97818.41
2022-09-24T17:41:50.376Z,97809.25
2022-09-24T17:44:18.062Z,97810.25
2022-09-24T17:46:45.389Z,97818.72
2022-09-24T17:49:12.978Z,97817.31
2022-09-24T17:51:40.182Z,97817.31
2022-09-24T17:54:14.653Z,97821.22
2022-09-24T17:56:42.652Z,97817.31
2022-09-24T17:59:13.618Z,97828.41
2022-09-24T18:01:44.555Z,97821.88
2022-09-24T18:04:22.635Z,97822.84
2022-09-24T18:06:50.489Z,97819.53
2022-09-24T18:09:19.162Z,97813.47
2022-09-24T18:11:52.714Z,97812.81
2022-09-24T18:14:23.057Z,97828.72
2022-09-24T18:16:52.171Z,97824.72
2022-09-24T18:19:19.714Z,97817.06
2022-09-24T18:21:49.323Z,97826.50
2022-09-24T18:24:17.474Z,97823.47
2022-09-24T18:26:48.376Z,97828.72
2022-09-24T18:29:19.435Z,97826.50
2022-09-24T18:31:46.859Z,97825.94
2022-09-24T18:34:16.261Z,97822.34
2022-09-24T18:36:45.198Z,97823.75
2022-09-24T18:39:21.770Z,97830.06
2022-09-24T18:41:51.628Z,97834.34
2022-09-24T18:44:19.836Z,97832.84
2022-09-24T18:46:47.162Z,97837.53
2022-09-24T18:49:15.001Z,97840.31
2022-09-24T18:51:42.313Z,97838.50
2022-09-24T18:54:14.542Z,97841.13
2022-09-24T18:56:43.718Z,97837.66
2022-09-24T18:59:14.874Z,97836.69
2022-09-24T19:01:43.995Z,97844.84
2022-09-24T19:04:13.463Z,97850.72
2022-09-24T19:06:44.238Z,97851.97
2022-09-24T19:09:17.413Z,97843.81
2022-09-24T19:11:45.637Z,97846.31
2022-09-24T19:14:18.554Z,97848.00
2022-09-24T19:16:47.393Z,97840.50
2022-09-24T19:19:16.355Z,97838.44
2022-09-24T19:21:43.936Z,97855.88
2022-09-24T19:24:11.759Z,97859.56
2022-09-24T19:26:39.237Z,97854.03
2022-09-24T19:29:06.697Z,97848.50
2022-09-24T19:31:38.727Z,97849.88
2022-09-24T19:34:09.085Z,97852.59
2022-09-24T19:36:43.766Z,97844.03
2022-09-24T19:39:15.943Z,97843.06
2022-09-24T19:41:44.225Z,97837.38
2022-09-24T19:44:12.321Z,97841.22
2022-09-24T19:46:40.368Z,97843.16
2022-09-24T19:49:07.779Z,97843.00
2022-09-24T19:51:36.892Z,97848.38
2022-09-24T19:54:07.802Z,97847.28
2022-09-24T19:56:36.993Z,97848.63
2022-09-24T19:59:05.939Z,97842.13
2022-09-24T20:01:34.270Z,97845.25
2022-09-24T20:04:06.479Z,97847.44
2022-09-24T20:06:36.767Z,97841.06
2022-09-24T20:09:04.942Z,97838.44
2022-09-24T20:11:32.996Z,97841.56
2022-09-24T20:14:01.409Z,97837.44
2022-09-24T20:16:33.218Z,97837.94
2022-09-24T20:19:02.426Z,97834.03
2022-09-24T20:21:35.022Z,97833.47
2022-09-24T20:24:04.475Z,97836.09
2022-09-24T20:26:50.864Z,97836.09
2022-09-24T20:29:19.957Z,97838.38
2022-09-24T20:31:52.411Z,97836.28
2022-09-24T20:34:33.387Z,97833.41
2022-09-24T20:37:05.759Z,97837.06
2022-09-24T20:39:33.904Z,97837.88
2022-09-24T20:42:03.924Z,97839.88
2022-09-24T20:44:33.719Z,97832.03
2022-09-24T20:47:01.105Z,97846.59
2022-09-24T20:49:30.051Z,97841.81
2022-09-24T20:51:58.080Z,97841.56
2022-09-24T20:54:28.234Z,97846.09
2022-09-24T20:56:56.571Z,97847.88
2022-09-24T20:59:26.760Z,97848.28
2022-09-24T21:01:54.819Z,97839.81
2022-09-24T21:04:23.593Z,97841.59
2022-09-24T21:06:50.983Z,97843.72
2022-09-24T21:09:18.560Z,97843.03
2022-09-24T21:11:45.788Z,97841.34
2022-09-24T21:14:14.770Z,97843.97
2022-09-24T21:16:42.283Z,97833.19
2022-09-24T21:19:10.765Z,97829.59
2022-09-24T21:21:39.155Z,97830.34
2022-09-24T21:24:12.240Z,97839.03
2022-09-24T21:26:40.560Z,97843.31
2022-09-24T21:29:18.138Z,97832.38
2022-09-24T21:31:47.563Z,97836.66
2022-09-24T21:34:20.979Z,97826.69
2022-09-24T21:36:48.944Z,97824.31
2022-09-24T21:39:23.088Z,97830.91
2022-09-24T21:41:55.078Z,97832.09
2022-09-24T21:44:22.950Z,97824.31
2022-09-24T21:46:52.559Z,97828.28
2022-09-24T21:49:20.580Z,97830.56
2022-09-24T21:51:48.979Z,97838.41
2022-09-24T21:54:18.627Z,97829.72
2022-09-24T21:56:47.052Z,97822.97
2022-09-24T21:59:34.703Z,97824.53
2022-09-24T22:02:03.581Z,97828.25
2022-09-24T22:04:33.226Z,97821.56
2022-09-24T22:07:00.664Z,97820.88
2022-09-24T22:09:28.693Z,97817.91
2022-09-24T22:11:57.835Z,97832.44
2022-09-24T22:14:26.362Z,97826.88
2022-09-24T22:16:54.243Z,97823.28
2022-09-24T22:19:22.441Z,97824.25
2022-09-24T22:21:49.685Z,97825.81
2022-09-24T22:24:16.990Z,97828.09
2022-09-24T22:26:45.390Z,97819.50
2022-09-24T22:29:13.500Z,97823.19
2022-09-24T22:31:40.809Z,97822.94
2022-09-24T22:34:26.851Z,97818.91
2022-09-24T22:36:54.142Z,97822.97
2022-09-24T22:39:21.564Z,97821.44
2022-09-24T22:41:48.811Z,97824.03
2022-09-24T22:44:16.117Z,97827.63
2022-09-24T22:46:43.545Z,97822.97
2022-09-24T22:49:11.096Z,97824.50
2022-09-24T22:51:39.488Z,97830.22
2022-09-24T22:54:09.717Z,97821.06
2022-09-24T22:56:38.375Z,97822.63
2022-09-24T22:59:06.485Z,97827.63
2022-09-24T23:01:42.080Z,97825.47
2022-09-24T23:04:14.989Z,97818.81
2022-09-24T23:06:43.790Z,97829.41
2022-09-24T23:09:11.679Z,97829.25
2022-09-24T23:11:39.932Z,97824.84
2022-09-24T23:14:14.432Z,97826.41
2022-09-24T23:16:42.938Z,97822.16
2022-09-24T23:19:19.885Z,97819.53
2022-09-24T23:21:47.763Z,97823.66
2022-09-24T23:24:21.905Z,97828.41
2022-09-24T23:26:51.135Z,97825.19
2022-09-24T23:29:18.572Z,97818.06
2022-09-24T23:31:45.778Z,97824.94
2022-09-24T23:34:14.364Z,97827.69
2022-09-24T23:36:45.216Z,97827.44
2022-09-24T23:39:12.829Z,97828.06
2022-09-24T23:41:40.643Z,97835.41
2022-09-24T23:44:08.113Z,97827.34
2022-09-24T23:46:35.392Z,97827.81
2022-09-24T23:49:02.666Z,97821.88
2022-09-24T23:51:30.158Z,97822.81
2022-09-24T23:53:57.596Z,97819.75
2022-09-24T23:56:24.893Z,97819.75
2022-09-24T23:58:52.481Z,97818.69
